Flight Briefing for CPX213

Departure Arrival
Chicago/Rockford International Airport (KRFD)
Click to view FAA NOTAMS
Theodore Francis Green State Airport (KPVD)
Click to view FAA NOTAMS
Departure Time Arrival Time
0630 UTC 0800 UTC
Aircraft Distance
B767-300BDSF 790nm
Departure METAR Arrival METAR
KRFD 250354Z 18009KT 10SM FEW065 SCT090 BKN250 22/21 A2987 RMK AO2 LTG DSNT NW SLP114 CONS LTGICCC DSNT SW AND NW CB DSNT SW AND NW MOV NE T02220206 KPVD 250351Z 08004KT 10SM FEW020 FEW040 FEW060 12/08 A3014 RMK AO2 SLP206 LAST T01220083
Suggested Route
QUOTE JOT J146 GIJ J554 JHW TRAAD HNK WIPOR3


View recent IFR Routes data
Notes



Charts and Procedures

Charts for KRFD
No chart available
Charts for KPVD
No chart available

Windy.com Weather Map